18:37
Airports
History
Links
Donate
Help keep this website running!
PayPal
Bitcoin
This page is community maintained. The information is intended for PC simulator navigation or reference.
Always use approved charts for navigation.
SWFJ
Feijo
Feijo (SWFJ)
Feijó, Acre, Brazil (69960)
(C)
Lat/Lng:8° 9' 56.09" S / 70° 21' 10.87" W
-8.165581 / -70.35302
Elevation:394'ft / 120mMSL
ID / ICAO:SWFJ
Runways:1
Longest:01-19
Asphalt 966m / 3,168ft
Controlled:Yes
Nearby Weather17:00 GMT 2018-02-21
Nearby weather at SBTK, TARAUACA located 29.4 nautical miles from SWFJ
Altimeter: 29.91
Visibility: 6.2 statute miles
Wind: 2 knots (from 110°)
Temp: 30°c / 86°f
Humidity: 74.7%

METAR: SBTK 211700Z 11002KT 9999 SCT030 BKN100 30/25 Q1013

(Powered by phpweather)
Runway 01 / 19
Dimensions:965.6 x 26.8m 3168' x 88'ft
Surface:Asphalt
Runway 01 [A]Runway 19 [B]
Heading:004°TH 184°TH
Lat:
Lng:
8° 10' 11.58"S
70° 21' 12"W
8° 9' 40.6"S
70° 21' 9.74"W
User Notes and Comments
8° 9' 56.09" S / 70° 21' 10.87" W
Distance To
Airport ID:
Nearby Airports
(U) Novo Aerodromo de Feijo 1.8 NM
SNOU NNE 13°
(C) TARAUACA 29.4 NM
SBTK ( WX ) W 271°
(U) Manoel Urbano 88.0 NM
SSPX ESE 122°
4 Santa Rosa do Purus 88.9 NM
SSPQ S 185°
(C) Eirunepe 110.3 NM
SWEI NNE 17°
(C) PUERTO ESPERANZA 113.3 NM
SPEP SSW 192°
(U) Jordao 129.8 NM
SSQB SW 236°
VFR Chart
Flight Planning at SkyVector.com